KEGI/EGI METAR and TAF weather

Enter ICAO airport designator
Station Type Date Time Source
KEGI METAR 2018/01/19 16:55 UTC NOAA

KEGI 191655Z VRB04KT 10SM FEW250 09/M10 A3037 RMK AO2A SLP287 T00891101 $


Station Type Date Time Source
KEGI Decoded METAR 2018/01/19 16:55 UTC NOAA

Duke Field / Eglin Auxiliary, FL, United States (KEGI) 30-39N 086-31W
Jan 19, 2018 - 11:55 AM EST / 2018.01.19 1655 UTC
Wind: Variable at 5 MPH (4 KT):0
Visibility: 10 mile(s):0
Sky conditions: mostly clear
Temperature: 48.0 F (8.9 C)
Dew Point: 13.8 F (-10.1 C)
Relative Humidity: 24%
Pressure (altimeter): 30.37 in. Hg (1028 hPa)
ob: KEGI 191655Z VRB04KT 10SM FEW250 09/M10 A3037 RMK AO2A SLP287 T00891101
cycle: 17

Station Type Date Time Source
KEGI TAF 2018/01/19 15:06 UTC NOAA

TAF
AMD KEGI 191505Z 1915/2016 36006KT 9999 FEW250 QNH3033INS
BECMG 1916/1917 04006KT 9999 SCT250 QNH3028INS WND 10006KT AFT 1921
BECMG 2007/2008 12008KT 9999 FEW160 BKN250 QNH3020INS TX13/1918Z TN03/1915Z FCST BY USAF WX MET TECH


Example: see airport list